sensor_id;sensor_type;location;lat;lon;timestamp;pressure;altitude;pressure_sealevel;temperature;humidity
74790;BME280;63318;52.406;13.416;2023-02-15T00:01:18;102853.75;;;2.75;79.77
74790;BME280;63318;52.406;13.416;2023-02-15T00:03:49;102850.11;;;2.67;79.82
74790;BME280;63318;52.406;13.416;2023-02-15T00:06:18;102846.02;;;2.59;80.00
74790;BME280;63318;52.406;13.416;2023-02-15T00:08:47;102848.11;;;2.52;79.77
74790;BME280;63318;52.406;13.416;2023-02-15T00:11:18;102849.95;;;2.47;80.22
74790;BME280;63318;52.406;13.416;2023-02-15T00:13:46;102848.95;;;2.41;80.17
74790;BME280;63318;52.406;13.416;2023-02-15T00:16:15;102852.92;;;2.33;80.01
74790;BME280;63318;52.406;13.416;2023-02-15T00:18:43;102850.82;;;2.26;79.96
74790;BME280;63318;52.406;13.416;2023-02-15T00:21:12;102848.36;;;2.19;80.06
74790;BME280;63318;52.406;13.416;2023-02-15T00:23:40;102843.17;;;2.11;80.21
74790;BME280;63318;52.406;13.416;2023-02-15T00:26:10;102837.27;;;2.05;80.23
74790;BME280;63318;52.406;13.416;2023-02-15T00:28:39;102838.17;;;1.98;80.19
74790;BME280;63318;52.406;13.416;2023-02-15T00:31:10;102834.98;;;1.92;80.05
74790;BME280;63318;52.406;13.416;2023-02-15T00:33:39;102833.64;;;1.86;80.21
74790;BME280;63318;52.406;13.416;2023-02-15T00:36:09;102832.87;;;1.80;80.38
74790;BME280;63318;52.406;13.416;2023-02-15T00:38:38;102833.77;;;1.74;80.55
74790;BME280;63318;52.406;13.416;2023-02-15T00:41:08;102828.23;;;1.67;80.61
74790;BME280;63318;52.406;13.416;2023-02-15T00:43:37;102830.46;;;1.62;80.62
74790;BME280;63318;52.406;13.416;2023-02-15T00:46:07;102829.93;;;1.57;80.53
74790;BME280;63318;52.406;13.416;2023-02-15T00:48:36;102828.50;;;1.52;80.79
74790;BME280;63318;52.406;13.416;2023-02-15T00:51:04;102829.98;;;1.47;80.72
74790;BME280;63318;52.406;13.416;2023-02-15T00:53:32;102829.77;;;1.41;80.79
74790;BME280;63318;52.406;13.416;2023-02-15T00:56:01;102826.54;;;1.36;80.75
74790;BME280;63318;52.406;13.416;2023-02-15T00:58:30;102822.41;;;1.32;80.89
74790;BME280;63318;52.406;13.416;2023-02-15T01:01:04;102818.90;;;1.27;81.10
74790;BME280;63318;52.406;13.416;2023-02-15T01:03:34;102819.03;;;1.22;81.16
74790;BME280;63318;52.406;13.416;2023-02-15T01:06:04;102816.81;;;1.18;81.01
74790;BME280;63318;52.406;13.416;2023-02-15T01:08:32;102815.70;;;1.13;81.17
74790;BME280;63318;52.406;13.416;2023-02-15T01:11:04;102820.21;;;1.08;81.21
74790;BME280;63318;52.406;13.416;2023-02-15T01:13:34;102816.32;;;1.04;81.12
74790;BME280;63318;52.406;13.416;2023-02-15T01:16:03;102814.06;;;0.99;81.10
74790;BME280;63318;52.406;13.416;2023-02-15T01:18:32;102811.44;;;0.95;81.09
74790;BME280;63318;52.406;13.416;2023-02-15T01:21:01;102811.50;;;0.91;81.28
74790;BME280;63318;52.406;13.416;2023-02-15T01:23:36;102810.14;;;0.87;81.28
74790;BME280;63318;52.406;13.416;2023-02-15T01:26:05;102810.48;;;0.83;81.34
74790;BME280;63318;52.406;13.416;2023-02-15T01:28:33;102804.25;;;0.80;81.47
74790;BME280;63318;52.406;13.416;2023-02-15T01:31:06;102799.54;;;0.76;81.52
74790;BME280;63318;52.406;13.416;2023-02-15T01:33:35;102792.42;;;0.73;81.54
74790;BME280;63318;52.406;13.416;2023-02-15T01:36:04;102788.29;;;0.70;81.47
74790;BME280;63318;52.406;13.416;2023-02-15T01:38:33;102782.42;;;0.69;81.63
74790;BME280;63318;52.406;13.416;2023-02-15T01:41:02;102778.47;;;0.66;81.79
74790;BME280;63318;52.406;13.416;2023-02-15T01:43:42;102772.92;;;0.64;81.70
74790;BME280;63318;52.406;13.416;2023-02-15T01:46:12;102773.52;;;0.62;81.92
74790;BME280;63318;52.406;13.416;2023-02-15T01:48:46;102776.14;;;0.60;81.82
74790;BME280;63318;52.406;13.416;2023-02-15T01:51:16;102772.90;;;0.57;81.85
74790;BME280;63318;52.406;13.416;2023-02-15T01:53:48;102765.95;;;0.54;81.77
74790;BME280;63318;52.406;13.416;2023-02-15T01:56:21;102762.95;;;0.51;81.83
74790;BME280;63318;52.406;13.416;2023-02-15T01:58:51;102761.21;;;0.49;81.79
74790;BME280;63318;52.406;13.416;2023-02-15T02:01:22;102760.89;;;0.45;81.95
74790;BME280;63318;52.406;13.416;2023-02-15T02:03:59;102754.84;;;0.42;82.07
74790;BME280;63318;52.406;13.416;2023-02-15T02:06:30;102755.91;;;0.39;81.83
74790;BME280;63318;52.406;13.416;2023-02-15T02:09:00;102754.21;;;0.36;81.81
74790;BME280;63318;52.406;13.416;2023-02-15T02:11:29;102751.45;;;0.32;82.07
74790;BME280;63318;52.406;13.416;2023-02-15T02:13:57;102743.56;;;0.29;82.10
74790;BME280;63318;52.406;13.416;2023-02-15T02:16:30;102745.09;;;0.27;82.06
74790;BME280;63318;52.406;13.416;2023-02-15T02:19:27;102742.98;;;0.25;82.00
74790;BME280;63318;52.406;13.416;2023-02-15T02:22:15;102741.83;;;0.22;82.08
74790;BME280;63318;52.406;13.416;2023-02-15T02:25:08;102743.27;;;0.19;82.02
74790;BME280;63318;52.406;13.416;2023-02-15T02:27:42;102741.95;;;0.16;82.24
74790;BME280;63318;52.406;13.416;2023-02-15T02:30:35;102743.50;;;0.13;82.02
74790;BME280;63318;52.406;13.416;2023-02-15T02:33:28;102738.27;;;0.10;82.43
74790;BME280;63318;52.406;13.416;2023-02-15T02:36:06;102734.82;;;0.09;82.62
74790;BME280;63318;52.406;13.416;2023-02-15T02:38:46;102733.98;;;0.08;82.46
74790;BME280;63318;52.406;13.416;2023-02-15T02:41:24;102732.20;;;0.08;82.48
74790;BME280;63318;52.406;13.416;2023-02-15T02:44:02;102728.45;;;0.07;82.72
74790;BME280;63318;52.406;13.416;2023-02-15T02:46:36;102721.98;;;0.06;82.66
74790;BME280;63318;52.406;13.416;2023-02-15T02:49:07;102719.17;;;0.05;82.45
74790;BME280;63318;52.406;13.416;2023-02-15T02:51:35;102714.67;;;0.05;82.65
74790;BME280;63318;52.406;13.416;2023-02-15T02:54:06;102710.81;;;0.03;82.61
74790;BME280;63318;52.406;13.416;2023-02-15T02:56:38;102709.98;;;0.02;82.81
74790;BME280;63318;52.406;13.416;2023-02-15T02:59:14;102707.21;;;0.01;82.85
74790;BME280;63318;52.406;13.416;2023-02-15T03:01:46;102708.50;;;-0.01;82.83
74790;BME280;63318;52.406;13.416;2023-02-15T03:04:18;102706.98;;;-0.02;82.87
74790;BME280;63318;52.406;13.416;2023-02-15T03:06:51;102704.96;;;-0.04;82.91
74790;BME280;63318;52.406;13.416;2023-02-15T03:09:26;102701.73;;;-0.06;82.99
74790;BME280;63318;52.406;13.416;2023-02-15T03:11:56;102698.31;;;-0.08;83.09
74790;BME280;63318;52.406;13.416;2023-02-15T03:14:25;102694.02;;;-0.09;82.79
74790;BME280;63318;52.406;13.416;2023-02-15T03:16:54;102695.77;;;-0.10;83.06
74790;BME280;63318;52.406;13.416;2023-02-15T03:19:26;102693.03;;;-0.10;82.90
74790;BME280;63318;52.406;13.416;2023-02-15T03:21:59;102691.60;;;-0.10;83.17
74790;BME280;63318;52.406;13.416;2023-02-15T03:24:32;102687.25;;;-0.10;82.92
74790;BME280;63318;52.406;13.416;2023-02-15T03:27:06;102686.23;;;-0.11;82.98
74790;BME280;63318;52.406;13.416;2023-02-15T03:29:36;102684.50;;;-0.12;83.22
74790;BME280;63318;52.406;13.416;2023-02-15T03:32:07;102691.46;;;-0.12;83.10
74790;BME280;63318;52.406;13.416;2023-02-15T03:34:38;102695.23;;;-0.14;83.14
74790;BME280;63318;52.406;13.416;2023-02-15T03:37:13;102698.06;;;-0.15;83.16
74790;BME280;63318;52.406;13.416;2023-02-15T03:39:49;102694.42;;;-0.16;83.21
74790;BME280;63318;52.406;13.416;2023-02-15T03:42:24;102690.72;;;-0.19;82.79
74790;BME280;63318;52.406;13.416;2023-02-15T03:44:58;102688.85;;;-0.22;82.94
74790;BME280;63318;52.406;13.416;2023-02-15T03:47:30;102687.73;;;-0.24;83.11
74790;BME280;63318;52.406;13.416;2023-02-15T03:50:03;102687.79;;;-0.26;83.18
74790;BME280;63318;52.406;13.416;2023-02-15T03:52:34;102682.69;;;-0.28;82.85
74790;BME280;63318;52.406;13.416;2023-02-15T03:55:04;102685.60;;;-0.29;83.22
74790;BME280;63318;52.406;13.416;2023-02-15T03:57:36;102681.10;;;-0.30;83.13
74790;BME280;63318;52.406;13.416;2023-02-15T04:00:09;102680.85;;;-0.31;83.14
74790;BME280;63318;52.406;13.416;2023-02-15T04:02:42;102674.80;;;-0.32;83.19
74790;BME280;63318;52.406;13.416;2023-02-15T04:05:13;102672.02;;;-0.34;83.11
74790;BME280;63318;52.406;13.416;2023-02-15T04:07:41;102669.98;;;-0.35;83.10
74790;BME280;63318;52.406;13.416;2023-02-15T04:10:10;102665.98;;;-0.37;83.34
74790;BME280;63318;52.406;13.416;2023-02-15T04:12:38;102663.43;;;-0.39;83.21
74790;BME280;63318;52.406;13.416;2023-02-15T04:15:07;102667.47;;;-0.41;83.27
74790;BME280;63318;52.406;13.416;2023-02-15T04:17:37;102664.95;;;-0.43;83.45
74790;BME280;63318;52.406;13.416;2023-02-15T04:20:07;102662.04;;;-0.45;83.35
74790;BME280;63318;52.406;13.416;2023-02-15T04:22:36;102660.64;;;-0.45;83.33
74790;BME280;63318;52.406;13.416;2023-02-15T04:25:05;102656.63;;;-0.47;83.39
74790;BME280;63318;52.406;13.416;2023-02-15T04:27:33;102657.84;;;-0.48;83.23
74790;BME280;63318;52.406;13.416;2023-02-15T04:30:01;102653.70;;;-0.50;83.34
74790;BME280;63318;52.406;13.416;2023-02-15T04:32:30;102653.11;;;-0.51;83.44
74790;BME280;63318;52.406;13.416;2023-02-15T04:34:58;102651.96;;;-0.53;83.45
74790;BME280;63318;52.406;13.416;2023-02-15T04:37:26;102649.95;;;-0.54;83.64
74790;BME280;63318;52.406;13.416;2023-02-15T04:39:54;102645.21;;;-0.56;83.68
74790;BME280;63318;52.406;13.416;2023-02-15T04:42:23;102647.34;;;-0.57;83.58
74790;BME280;63318;52.406;13.416;2023-02-15T04:44:51;102646.39;;;-0.58;83.37
74790;BME280;63318;52.406;13.416;2023-02-15T04:47:20;102647.23;;;-0.60;83.61
74790;BME280;63318;52.406;13.416;2023-02-15T04:49:48;102640.16;;;-0.62;83.86
74790;BME280;63318;52.406;13.416;2023-02-15T04:52:17;102639.38;;;-0.63;83.59
74790;BME280;63318;52.406;13.416;2023-02-15T04:54:45;102634.67;;;-0.65;83.69
74790;BME280;63318;52.406;13.416;2023-02-15T04:57:14;102632.96;;;-0.66;83.35
74790;BME280;63318;52.406;13.416;2023-02-15T04:59:42;102624.83;;;-0.68;83.45
74790;BME280;63318;52.406;13.416;2023-02-15T05:02:10;102621.39;;;-0.71;83.41
74790;BME280;63318;52.406;13.416;2023-02-15T05:04:39;102614.70;;;-0.73;83.59
74790;BME280;63318;52.406;13.416;2023-02-15T05:07:07;102610.88;;;-0.75;83.60
74790;BME280;63318;52.406;13.416;2023-02-15T05:09:38;102608.84;;;-0.76;83.66
74790;BME280;63318;52.406;13.416;2023-02-15T05:12:07;102605.15;;;-0.77;83.44
74790;BME280;63318;52.406;13.416;2023-02-15T05:14:36;102604.39;;;-0.79;83.40
74790;BME280;63318;52.406;13.416;2023-02-15T05:17:04;102600.84;;;-0.79;83.89
74790;BME280;63318;52.406;13.416;2023-02-15T05:19:33;102602.59;;;-0.81;83.56
74790;BME280;63318;52.406;13.416;2023-02-15T05:22:01;102599.62;;;-0.82;83.93
74790;BME280;63318;52.406;13.416;2023-02-15T05:24:29;102600.42;;;-0.82;84.02
74790;BME280;63318;52.406;13.416;2023-02-15T05:26:57;102600.98;;;-0.83;83.80
74790;BME280;63318;52.406;13.416;2023-02-15T05:29:25;102597.35;;;-0.83;83.88
74790;BME280;63318;52.406;13.416;2023-02-15T05:31:54;102598.30;;;-0.83;84.19
74790;BME280;63318;52.406;13.416;2023-02-15T05:34:22;102595.61;;;-0.83;84.03
74790;BME280;63318;52.406;13.416;2023-02-15T05:36:51;102598.27;;;-0.83;84.15
74790;BME280;63318;52.406;13.416;2023-02-15T05:39:19;102599.27;;;-0.82;84.35
74790;BME280;63318;52.406;13.416;2023-02-15T05:41:47;102598.70;;;-0.82;84.30
74790;BME280;63318;52.406;13.416;2023-02-15T05:44:16;102596.02;;;-0.82;84.14
74790;BME280;63318;52.406;13.416;2023-02-15T05:46:44;102592.15;;;-0.82;84.48
74790;BME280;63318;52.406;13.416;2023-02-15T05:49:12;102589.36;;;-0.81;84.19
74790;BME280;63318;52.406;13.416;2023-02-15T05:51:41;102584.54;;;-0.82;83.85
74790;BME280;63318;52.406;13.416;2023-02-15T05:54:09;102587.45;;;-0.84;84.00
74790;BME280;63318;52.406;13.416;2023-02-15T05:56:37;102585.06;;;-0.85;84.05
74790;BME280;63318;52.406;13.416;2023-02-15T05:59:06;102584.67;;;-0.86;84.22
74790;BME280;63318;52.406;13.416;2023-02-15T06:01:35;102589.22;;;-0.89;84.10
74790;BME280;63318;52.406;13.416;2023-02-15T06:04:03;102590.16;;;-0.91;84.39
74790;BME280;63318;52.406;13.416;2023-02-15T06:06:32;102587.37;;;-0.92;84.19
74790;BME280;63318;52.406;13.416;2023-02-15T06:09:00;102589.81;;;-0.93;84.42
74790;BME280;63318;52.406;13.416;2023-02-15T06:11:29;102591.52;;;-0.95;83.84
74790;BME280;63318;52.406;13.416;2023-02-15T06:13:57;102591.27;;;-0.98;84.42
74790;BME280;63318;52.406;13.416;2023-02-15T06:16:26;102589.23;;;-0.99;84.44
74790;BME280;63318;52.406;13.416;2023-02-15T06:18:54;102589.06;;;-0.99;84.58
74790;BME280;63318;52.406;13.416;2023-02-15T06:21:22;102591.30;;;-0.98;84.82
74790;BME280;63318;52.406;13.416;2023-02-15T06:23:51;102594.33;;;-0.97;84.68
74790;BME280;63318;52.406;13.416;2023-02-15T06:26:19;102595.49;;;-0.96;84.81
74790;BME280;63318;52.406;13.416;2023-02-15T06:28:47;102596.29;;;-0.95;84.83
74790;BME280;63318;52.406;13.416;2023-02-15T06:31:15;102593.52;;;-0.95;84.71
74790;BME280;63318;52.406;13.416;2023-02-15T06:33:44;102588.86;;;-0.96;84.60
74790;BME280;63318;52.406;13.416;2023-02-15T06:36:12;102586.95;;;-0.97;84.81
74790;BME280;63318;52.406;13.416;2023-02-15T06:38:40;102584.35;;;-0.96;84.81
74790;BME280;63318;52.406;13.416;2023-02-15T06:41:08;102587.11;;;-0.96;84.96
74790;BME280;63318;52.406;13.416;2023-02-15T06:43:36;102587.59;;;-0.96;85.12
74790;BME280;63318;52.406;13.416;2023-02-15T06:46:05;102584.30;;;-0.96;85.13
74790;BME280;63318;52.406;13.416;2023-02-15T06:48:33;102582.80;;;-0.95;85.21
74790;BME280;63318;52.406;13.416;2023-02-15T06:51:01;102580.73;;;-0.94;84.89
74790;BME280;63318;52.406;13.416;2023-02-15T06:53:29;102574.23;;;-0.95;84.88
74790;BME280;63318;52.406;13.416;2023-02-15T06:56:02;102573.86;;;-0.96;84.79
74790;BME280;63318;52.406;13.416;2023-02-15T06:58:31;102575.15;;;-0.97;84.87
74790;BME280;63318;52.406;13.416;2023-02-15T07:00:59;102576.70;;;-0.98;84.94
74790;BME280;63318;52.406;13.416;2023-02-15T07:03:28;102575.41;;;-0.97;84.80
74790;BME280;63318;52.406;13.416;2023-02-15T07:05:57;102577.92;;;-0.97;84.91
74790;BME280;63318;52.406;13.416;2023-02-15T07:08:26;102575.38;;;-0.97;84.97
74790;BME280;63318;52.406;13.416;2023-02-15T07:10:56;102569.20;;;-0.99;85.05
74790;BME280;63318;52.406;13.416;2023-02-15T07:13:24;102568.19;;;-1.00;85.19
74790;BME280;63318;52.406;13.416;2023-02-15T07:15:55;102569.61;;;-0.99;85.01
74790;BME280;63318;52.406;13.416;2023-02-15T07:18:23;102571.17;;;-0.99;85.01
74790;BME280;63318;52.406;13.416;2023-02-15T07:20:51;102564.36;;;-0.98;85.02
74790;BME280;63318;52.406;13.416;2023-02-15T07:23:20;102564.64;;;-0.97;85.35
74790;BME280;63318;52.406;13.416;2023-02-15T07:25:48;102566.20;;;-0.94;85.33
74790;BME280;63318;52.406;13.416;2023-02-15T07:28:16;102566.10;;;-0.92;85.10
74790;BME280;63318;52.406;13.416;2023-02-15T07:30:45;102558.33;;;-0.90;85.18
74790;BME280;63318;52.406;13.416;2023-02-15T07:33:13;102553.63;;;-0.89;84.97
74790;BME280;63318;52.406;13.416;2023-02-15T07:35:47;102549.23;;;-0.89;85.24
74790;BME280;63318;52.406;13.416;2023-02-15T07:38:16;102547.20;;;-0.88;85.04
74790;BME280;63318;52.406;13.416;2023-02-15T07:40:46;102549.31;;;-0.89;85.31
74790;BME280;63318;52.406;13.416;2023-02-15T07:43:15;102547.91;;;-0.90;84.78
74790;BME280;63318;52.406;13.416;2023-02-15T07:45:43;102544.09;;;-0.90;85.00
74790;BME280;63318;52.406;13.416;2023-02-15T07:48:12;102538.77;;;-0.90;85.21
74790;BME280;63318;52.406;13.416;2023-02-15T07:50:40;102534.52;;;-0.89;85.26
74790;BME280;63318;52.406;13.416;2023-02-15T07:53:09;102531.45;;;-0.89;85.11
74790;BME280;63318;52.406;13.416;2023-02-15T07:55:37;102531.50;;;-0.88;85.35
74790;BME280;63318;52.406;13.416;2023-02-15T07:58:06;102534.04;;;-0.86;85.47
74790;BME280;63318;52.406;13.416;2023-02-15T08:00:34;102527.50;;;-0.82;85.56
74790;BME280;63318;52.406;13.416;2023-02-15T08:03:02;102526.14;;;-0.78;85.54
74790;BME280;63318;52.406;13.416;2023-02-15T08:05:31;102525.35;;;-0.74;85.85
74790;BME280;63318;52.406;13.416;2023-02-15T08:07:59;102524.45;;;-0.70;85.63
74790;BME280;63318;52.406;13.416;2023-02-15T08:10:27;102523.65;;;-0.66;85.84
74790;BME280;63318;52.406;13.416;2023-02-15T08:12:56;102521.64;;;-0.62;85.55
74790;BME280;63318;52.406;13.416;2023-02-15T08:15:24;102522.69;;;-0.58;85.78
74790;BME280;63318;52.406;13.416;2023-02-15T08:17:52;102521.09;;;-0.54;85.98
74790;BME280;63318;52.406;13.416;2023-02-15T08:20:21;102524.98;;;-0.50;86.04
74790;BME280;63318;52.406;13.416;2023-02-15T08:22:49;102519.75;;;-0.45;85.83
74790;BME280;63318;52.406;13.416;2023-02-15T08:25:17;102519.20;;;-0.41;85.86
74790;BME280;63318;52.406;13.416;2023-02-15T08:27:45;102521.01;;;-0.38;86.09
74790;BME280;63318;52.406;13.416;2023-02-15T08:30:16;102514.80;;;-0.34;85.87
74790;BME280;63318;52.406;13.416;2023-02-15T08:32:44;102515.68;;;-0.30;85.80
74790;BME280;63318;52.406;13.416;2023-02-15T08:35:12;102521.85;;;-0.27;85.48
74790;BME280;63318;52.406;13.416;2023-02-15T08:37:40;102515.54;;;-0.24;85.90
74790;BME280;63318;52.406;13.416;2023-02-15T08:40:11;102516.48;;;-0.21;85.86
74790;BME280;63318;52.406;13.416;2023-02-15T08:42:39;102513.08;;;-0.16;85.90
74790;BME280;63318;52.406;13.416;2023-02-15T08:45:09;102506.81;;;-0.12;85.93
74790;BME280;63318;52.406;13.416;2023-02-15T08:47:37;102505.95;;;-0.09;85.68
74790;BME280;63318;52.406;13.416;2023-02-15T08:50:07;102502.48;;;-0.08;85.75
74790;BME280;63318;52.406;13.416;2023-02-15T08:52:35;102498.64;;;-0.04;85.75
74790;BME280;63318;52.406;13.416;2023-02-15T08:55:04;102492.90;;;0.01;85.93
74790;BME280;63318;52.406;13.416;2023-02-15T08:57:32;102492.71;;;0.06;85.99
74790;BME280;63318;52.406;13.416;2023-02-15T09:00:00;102487.66;;;0.11;86.02
74790;BME280;63318;52.406;13.416;2023-02-15T09:02:28;102488.54;;;0.16;86.10
74790;BME280;63318;52.406;13.416;2023-02-15T09:04:57;102483.48;;;0.22;86.32
74790;BME280;63318;52.406;13.416;2023-02-15T09:07:25;102484.08;;;0.28;86.26
74790;BME280;63318;52.406;13.416;2023-02-15T09:09:53;102478.91;;;0.36;86.23
74790;BME280;63318;52.406;13.416;2023-02-15T09:12:22;102476.68;;;0.41;86.50
74790;BME280;63318;52.406;13.416;2023-02-15T09:14:50;102473.87;;;0.46;86.21
74790;BME280;63318;52.406;13.416;2023-02-15T09:17:18;102468.55;;;0.52;86.24
74790;BME280;63318;52.406;13.416;2023-02-15T09:19:47;102470.99;;;0.58;86.38
74790;BME280;63318;52.406;13.416;2023-02-15T09:22:15;102468.30;;;0.62;86.08
74790;BME280;63318;52.406;13.416;2023-02-15T09:24:44;102466.64;;;0.66;86.02
74790;BME280;63318;52.406;13.416;2023-02-15T09:27:12;102468.98;;;0.69;86.07
74790;BME280;63318;52.406;13.416;2023-02-15T09:29:41;102466.77;;;0.75;85.97
74790;BME280;63318;52.406;13.416;2023-02-15T09:32:11;102471.59;;;0.81;86.14
74790;BME280;63318;52.406;13.416;2023-02-15T09:34:41;102471.05;;;0.86;86.12
74790;BME280;63318;52.406;13.416;2023-02-15T09:37:09;102469.96;;;0.90;86.19
74790;BME280;63318;52.406;13.416;2023-02-15T09:39:39;102473.54;;;0.94;86.11
74790;BME280;63318;52.406;13.416;2023-02-15T09:42:32;102476.27;;;1.01;86.27
74790;BME280;63318;52.406;13.416;2023-02-15T09:45:20;102475.53;;;1.07;86.11
74790;BME280;63318;52.406;13.416;2023-02-15T09:51:10;102476.09;;;1.20;86.22
74790;BME280;63318;52.406;13.416;2023-02-15T09:53:58;102470.98;;;1.26;86.25
74790;BME280;63318;52.406;13.416;2023-02-15T09:56:33;102466.98;;;1.34;86.48
74790;BME280;63318;52.406;13.416;2023-02-15T09:59:13;102469.67;;;1.41;86.43
74790;BME280;63318;52.406;13.416;2023-02-15T10:01:48;102466.98;;;1.48;86.30
74790;BME280;63318;52.406;13.416;2023-02-15T10:04:34;102462.83;;;1.54;86.29
74790;BME280;63318;52.406;13.416;2023-02-15T10:07:17;102458.25;;;1.61;86.30
74790;BME280;63318;52.406;13.416;2023-02-15T10:10:04;102453.35;;;1.69;86.48
74790;BME280;63318;52.406;13.416;2023-02-15T10:12:46;102454.45;;;1.78;86.59
74790;BME280;63318;52.406;13.416;2023-02-15T10:15:43;102456.25;;;1.88;86.49
74790;BME280;63318;52.406;13.416;2023-02-15T10:18:27;102453.41;;;1.95;86.21
74790;BME280;63318;52.406;13.416;2023-02-15T10:21:02;102455.91;;;2.00;86.12
74790;BME280;63318;52.406;13.416;2023-02-15T10:23:46;102455.86;;;2.05;86.23
74790;BME280;63318;52.406;13.416;2023-02-15T10:26:20;102446.98;;;2.11;86.06
74790;BME280;63318;52.406;13.416;2023-02-15T10:28:51;102444.21;;;2.16;86.01
74790;BME280;63318;52.406;13.416;2023-02-15T10:31:25;102442.11;;;2.23;86.20
74790;BME280;63318;52.406;13.416;2023-02-15T10:34:14;102433.42;;;2.29;85.87
74790;BME280;63318;52.406;13.416;2023-02-15T10:39:41;102423.64;;;2.43;86.17
74790;BME280;63318;52.406;13.416;2023-02-15T10:42:13;102419.10;;;2.52;85.83
74790;BME280;63318;52.406;13.416;2023-02-15T10:44:58;102419.70;;;2.61;86.03
74790;BME280;63318;52.406;13.416;2023-02-15T10:47:45;102414.92;;;2.72;85.70
74790;BME280;63318;52.406;13.416;2023-02-15T10:50:32;102410.80;;;2.81;85.72
74790;BME280;63318;52.406;13.416;2023-02-15T10:53:16;102410.15;;;2.92;85.53
74790;BME280;63318;52.406;13.416;2023-02-15T10:56:03;102408.20;;;3.00;85.69
74790;BME280;63318;52.406;13.416;2023-02-15T10:58:48;102406.41;;;3.09;85.21
74790;BME280;63318;52.406;13.416;2023-02-15T11:01:22;102404.01;;;3.17;85.46
74790;BME280;63318;52.406;13.416;2023-02-15T11:04:08;102403.00;;;3.26;85.46
74790;BME280;63318;52.406;13.416;2023-02-15T11:06:43;102400.73;;;3.36;85.28
74790;BME280;63318;52.406;13.416;2023-02-15T11:09:15;102400.36;;;3.43;85.25
74790;BME280;63318;52.406;13.416;2023-02-15T11:11:48;102401.64;;;3.52;85.23
74790;BME280;63318;52.406;13.416;2023-02-15T11:14:22;102398.74;;;3.59;85.28
74790;BME280;63318;52.406;13.416;2023-02-15T11:16:56;102398.61;;;3.69;84.99
74790;BME280;63318;52.406;13.416;2023-02-15T11:19:31;102393.45;;;3.80;84.76
74790;BME280;63318;52.406;13.416;2023-02-15T11:22:02;102382.48;;;3.92;84.73
74790;BME280;63318;52.406;13.416;2023-02-15T11:24:35;102379.14;;;4.07;84.83
74790;BME280;63318;52.406;13.416;2023-02-15T11:27:12;102376.34;;;4.22;84.61
74790;BME280;63318;52.406;13.416;2023-02-15T11:29:53;102372.45;;;4.37;84.42
74790;BME280;63318;52.406;13.416;2023-02-15T11:32:27;102368.27;;;4.48;84.30
74790;BME280;63318;52.406;13.416;2023-02-15T11:34:58;102365.48;;;4.61;84.34
74790;BME280;63318;52.406;13.416;2023-02-15T11:37:29;102361.59;;;4.74;84.12
74790;BME280;63318;52.406;13.416;2023-02-15T11:40:03;102360.23;;;4.84;83.99
74790;BME280;63318;52.406;13.416;2023-02-15T11:42:43;102352.31;;;4.99;83.88
74790;BME280;63318;52.406;13.416;2023-02-15T11:45:25;102348.77;;;5.09;83.70
74790;BME280;63318;52.406;13.416;2023-02-15T11:47:55;102343.15;;;5.22;83.47
74790;BME280;63318;52.406;13.416;2023-02-15T11:50:26;102339.60;;;5.35;83.48
74790;BME280;63318;52.406;13.416;2023-02-15T11:53:00;102336.52;;;5.49;83.19
74790;BME280;63318;52.406;13.416;2023-02-15T11:55:30;102335.75;;;5.60;83.24
74790;BME280;63318;52.406;13.416;2023-02-15T11:58:04;102327.96;;;5.70;82.61
74790;BME280;63318;52.406;13.416;2023-02-15T12:00:39;102326.74;;;5.79;82.66
74790;BME280;63318;52.406;13.416;2023-02-15T12:03:17;102326.65;;;5.90;82.42
74790;BME280;63318;52.406;13.416;2023-02-15T12:05:49;102323.98;;;6.01;82.18
74790;BME280;63318;52.406;13.416;2023-02-15T12:08:24;102322.21;;;6.11;81.95
74790;BME280;63318;52.406;13.416;2023-02-15T12:11:00;102319.70;;;6.21;81.83
74790;BME280;63318;52.406;13.416;2023-02-15T12:13:30;102318.75;;;6.34;81.85
74790;BME280;63318;52.406;13.416;2023-02-15T12:16:05;102320.28;;;6.44;81.68
74790;BME280;63318;52.406;13.416;2023-02-15T12:18:38;102322.94;;;6.53;81.50
74790;BME280;63318;52.406;13.416;2023-02-15T12:21:10;102324.42;;;6.61;81.60
74790;BME280;63318;52.406;13.416;2023-02-15T12:23:46;102323.82;;;6.69;80.99
74790;BME280;63318;52.406;13.416;2023-02-15T12:26:19;102320.39;;;6.79;81.00
74790;BME280;63318;52.406;13.416;2023-02-15T12:28:52;102320.23;;;6.88;80.96
74790;BME280;63318;52.406;13.416;2023-02-15T12:31:24;102309.23;;;6.96;80.79
74790;BME280;63318;52.406;13.416;2023-02-15T12:33:57;102300.84;;;7.04;80.70
74790;BME280;63318;52.406;13.416;2023-02-15T12:36:31;102296.21;;;7.11;80.59
74790;BME280;63318;52.406;13.416;2023-02-15T12:39:09;102294.80;;;7.19;80.86
74790;BME280;63318;52.406;13.416;2023-02-15T12:41:57;102292.38;;;7.25;80.71
74790;BME280;63318;52.406;13.416;2023-02-15T12:44:27;102287.44;;;7.30;80.43
74790;BME280;63318;52.406;13.416;2023-02-15T12:47:02;102283.52;;;7.34;80.28
74790;BME280;63318;52.406;13.416;2023-02-15T12:49:33;102277.38;;;7.41;80.26
74790;BME280;63318;52.406;13.416;2023-02-15T12:52:04;102271.84;;;7.46;79.74
74790;BME280;63318;52.406;13.416;2023-02-15T12:54:39;102267.10;;;7.51;79.88
74790;BME280;63318;52.406;13.416;2023-02-15T12:57:23;102257.69;;;7.58;80.08
74790;BME280;63318;52.406;13.416;2023-02-15T12:59:54;102255.27;;;7.64;79.80
74790;BME280;63318;52.406;13.416;2023-02-15T13:02:29;102248.62;;;7.71;79.79
74790;BME280;63318;52.406;13.416;2023-02-15T13:05:10;102251.09;;;7.78;79.44
74790;BME280;63318;52.406;13.416;2023-02-15T13:07:47;102252.88;;;7.85;79.53
74790;BME280;63318;52.406;13.416;2023-02-15T13:10:28;102248.11;;;7.91;79.25
74790;BME280;63318;52.406;13.416;2023-02-15T13:12:58;102241.96;;;7.96;79.00
74790;BME280;63318;52.406;13.416;2023-02-15T13:15:32;102240.10;;;8.01;79.02